Terminal Aerodrome Forecast
Issued by NWS

Home | Current Version | Previous Version | Text Only | Print | Product List | Glossary On
Versions: 1 2 3 4 5 6 7 8 9 10 11 12 13 14 15
000
FTUS46 KPQR 231500 CCA
TAFONP
TAF COR
KONP 231500Z 2315/2412 34010G18KT 5SM BR FEW009
      TEMPO 2315/2318 3SM BR OVC008
     FM231900 34015G25KT 6SM BR SCT006
     FM232100 35020G28KT 3SM -DZ BR OVC007=

USA.gov is the U.S. government's official web portal to all federal, state and local government web resources and services.